Time;durP1;ratioP1;P1;durP2;ratioP2;P2;SDS_P1;SDS_P2;PMS_P1;PMS_P2;Temp;Humidity;BMP_temperature;BMP_pressure;BME280_temperature;BME280_humidity;BME280_pressure;Samples;Min_cycle;Max_cycle;Signal;HPM_P1;HPM_P2
2022/04/26 03:36:59;;;;;;;29.88;22.70;;;2.40;99.90;;;;;;5071343;28;20473;-82
2022/04/26 03:39:25;;;;;;;26.13;20.43;;;2.50;99.90;;;;;;5069139;28;20461;-83
2022/04/26 03:41:54;;;;;;;41.20;20.98;;;2.60;99.90;;;;;;5069417;28;20390;-83
2022/04/26 03:44:19;;;;;;;30.80;22.13;;;2.60;99.90;;;;;;5069999;27;20382;-82
2022/04/26 03:46:45;;;;;;;30.27;21.43;;;2.60;99.90;;;;;;5069379;28;20834;-83
2022/04/26 03:49:11;;;;;;;24.87;19.03;;;2.70;99.90;;;;;;5069570;28;20459;-82
2022/04/26 03:51:36;;;;;;;22.00;18.77;;;2.70;99.90;;;;;;5070806;28;20710;-82
2022/04/26 03:54:02;;;;;;;25.90;20.83;;;2.70;99.90;;;;;;5070547;28;20457;-82
2022/04/26 03:56:27;;;;;;;25.27;19.27;;;2.70;99.90;;;;;;5069263;28;20897;-82
2022/04/26 03:58:53;;;;;;;27.13;20.00;;;2.70;99.90;;;;;;5070404;27;20433;-82
2022/04/26 04:01:18;;;;;;;21.48;18.23;;;2.80;99.90;;;;;;5070444;28;20779;-82
2022/04/26 04:03:44;;;;;;;24.67;18.88;;;2.80;99.90;;;;;;5070194;28;20409;-82
2022/04/26 04:06:10;;;;;;;22.37;18.47;;;2.80;99.90;;;;;;5070449;28;20398;-81
2022/04/26 04:08:35;;;;;;;20.67;18.23;;;2.90;99.90;;;;;;5069376;28;20827;-82
2022/04/26 04:11:01;;;;;;;23.70;18.65;;;3.10;99.90;;;;;;5069284;28;20390;-81
2022/04/26 04:13:26;;;;;;;20.85;17.33;;;3.30;99.90;;;;;;5069298;27;20430;-82
2022/04/26 04:15:52;;;;;;;22.53;17.13;;;3.30;99.90;;;;;;5068671;28;20425;-82
2022/04/26 04:21:01;;;;;;;21.15;17.23;;;3.60;99.90;;;;;;5070315;28;20459;-82
2022/04/26 04:23:27;;;;;;;20.03;16.50;;;3.60;99.90;;;;;;5070017;28;20897;-82
2022/04/26 04:25:53;;;;;;;21.92;15.90;;;3.70;99.90;;;;;;5069927;28;20406;-82
2022/04/26 04:28:18;;;;;;;22.95;16.75;;;3.80;99.90;;;;;;5068244;28;20526;-82
2022/04/26 04:30:44;;;;;;;22.23;16.97;;;3.90;99.90;;;;;;5070071;28;20851;-82
2022/04/26 04:33:10;;;;;;;19.50;16.63;;;3.90;99.90;;;;;;5068265;28;20381;-82
2022/04/26 04:35:35;;;;;;;19.35;16.27;;;4.10;99.90;;;;;;5068919;28;20390;-82
2022/04/26 04:38:01;;;;;;;20.38;15.05;;;4.30;99.90;;;;;;5069860;28;20382;-82
2022/04/26 04:40:26;;;;;;;15.95;14.15;;;4.60;99.90;;;;;;5068620;28;20382;-83
2022/04/26 04:42:52;;;;;;;17.10;12.80;;;5.00;99.90;;;;;;5067966;28;20374;-83
2022/04/26 04:45:18;;;;;;;40.53;15.27;;;5.40;99.90;;;;;;5067666;28;20416;-82
2022/04/26 04:47:44;;;;;;;14.07;11.55;;;5.80;99.90;;;;;;5069683;28;20370;-82
2022/04/26 04:50:10;;;;;;;14.93;11.65;;;6.20;99.90;;;;;;5067865;28;20895;-83
2022/04/26 04:52:36;;;;;;;46.10;14.90;;;6.50;99.90;;;;;;5068276;28;20386;-82
2022/04/26 04:55:02;;;;;;;15.48;13.30;;;6.80;99.90;;;;;;5067985;28;20824;-82
2022/04/26 04:57:28;;;;;;;14.52;12.32;;;7.10;99.90;;;;;;5068257;28;20887;-82
2022/04/26 04:59:53;;;;;;;14.73;12.77;;;7.30;99.90;;;;;;5069344;28;20432;-82
2022/04/26 05:02:19;;;;;;;16.45;12.80;;;7.60;99.90;;;;;;5069457;28;20402;-82
2022/04/26 05:04:47;;;;;;;26.88;14.27;;;7.90;99.90;;;;;;5067321;28;20380;-82
2022/04/26 05:07:12;;;;;;;17.10;12.75;;;8.10;99.90;;;;;;5067935;28;20399;-81
2022/04/26 05:09:38;;;;;;;17.38;13.20;;;8.30;99.90;;;;;;5067949;28;20489;-82
2022/04/26 05:12:04;;;;;;;22.50;13.73;;;8.40;99.90;;;;;;5068051;28;20370;-82
2022/04/26 05:14:30;;;;;;;14.73;12.43;;;8.40;99.90;;;;;;5068869;28;20451;-82
2022/04/26 05:16:55;;;;;;;16.25;12.88;;;8.50;99.90;;;;;;5064347;28;20391;-83
2022/04/26 05:19:21;;;;;;;15.37;12.97;;;8.50;99.90;;;;;;5067594;28;20914;-82
2022/04/26 05:21:47;;;;;;;23.42;14.50;;;8.50;99.90;;;;;;5068919;28;20498;-82
2022/04/26 05:26:56;;;;;;;16.80;13.68;;;8.80;99.90;;;;;;5069464;28;20417;-83
2022/04/26 05:29:22;;;;;;;16.95;13.70;;;8.90;99.90;;;;;;5067553;28;20395;-83
2022/04/26 05:31:47;;;;;;;20.23;14.63;;;8.90;99.90;;;;;;5061354;28;20388;-83
2022/04/26 05:34:13;;;;;;;16.35;13.18;;;9.00;99.90;;;;;;5051626;28;20392;-82
2022/04/26 05:36:38;;;;;;;19.27;14.40;;;9.10;99.90;;;;;;5065896;28;20439;-82
2022/04/26 05:39:04;;;;;;;32.50;16.33;;;9.10;99.90;;;;;;5069025;28;20868;-83
2022/04/26 05:41:30;;;;;;;17.25;14.65;;;9.00;99.90;;;;;;5067721;28;20394;-82
2022/04/26 05:43:56;;;;;;;19.60;13.98;;;8.90;99.90;;;;;;5066312;27;20378;-82
2022/04/26 05:46:21;;;;;;;16.97;13.47;;;8.80;99.90;;;;;;5068246;28;20394;-83
2022/04/26 05:48:47;;;;;;;16.53;12.60;;;8.70;99.90;;;;;;5068045;28;20865;-82
2022/04/26 05:51:12;;;;;;;39.42;15.52;;;8.70;99.90;;;;;;5067338;28;20458;-81
2022/04/26 05:53:38;;;;;;;18.10;12.93;;;8.80;99.90;;;;;;5067578;28;20473;-82
2022/04/26 05:56:08;;;;;;;13.87;12.10;;;8.90;99.90;;;;;;5062302;28;20395;-83
2022/04/26 05:58:34;;;;;;;16.35;12.70;;;9.00;99.90;;;;;;5048919;28;20737;-82
2022/04/26 06:01:00;;;;;;;13.90;11.50;;;9.00;99.90;;;;;;5047399;28;20897;-82
2022/04/26 06:03:25;;;;;;;13.07;11.37;;;9.20;99.90;;;;;;5084932;28;20458;-82
2022/04/26 06:05:55;;;;;;;13.73;10.88;;;9.40;99.90;;;;;;5068252;28;20415;-83
2022/04/26 06:08:22;;;;;;;13.43;10.10;;;9.60;99.90;;;;;;5069002;28;20427;-82
2022/04/26 06:10:47;;;;;;;12.63;9.98;;;9.90;99.90;;;;;;5071635;28;20500;-83
2022/04/26 06:13:13;;;;;;;10.85;9.70;;;10.10;99.90;;;;;;5072087;28;20468;-83
2022/04/26 06:15:39;;;;;;;19.13;11.05;;;10.30;99.90;;;;;;5066405;28;20570;-82
2022/04/26 06:18:04;;;;;;;10.67;9.03;;;10.50;99.90;;;;;;5052343;28;20376;-83
2022/04/26 06:20:30;;;;;;;10.73;8.68;;;10.80;99.90;;;;;;5051202;28;20466;-82
2022/04/26 06:22:56;;;;;;;9.27;8.25;;;11.20;99.90;;;;;;5051092;28;20430;-83
2022/04/26 06:25:21;;;;;;;10.83;8.07;;;11.50;99.90;;;;;;5052379;28;20410;-82
2022/04/26 06:27:47;;;;;;;10.52;8.45;;;11.90;99.90;;;;;;5055557;28;20478;-82
2022/04/26 06:30:14;;;;;;;8.82;7.50;;;12.10;99.90;;;;;;5067290;28;20447;-83
2022/04/26 06:32:42;;;;;;;10.48;7.95;;;12.20;99.90;;;;;;5051205;28;20759;-83
2022/04/26 06:35:08;;;;;;;17.63;8.32;;;12.30;99.90;;;;;;5050684;28;20388;-83
2022/04/26 06:37:33;;;;;;;8.88;7.43;;;12.30;99.90;;;;;;5050830;28;20375;-83
2022/04/26 06:39:59;;;;;;;9.45;8.25;;;12.30;99.90;;;;;;5050843;28;20896;-82
2022/04/26 06:42:24;;;;;;;9.10;7.22;;;12.40;99.90;;;;;;5074334;28;20389;-83
2022/04/26 06:44:50;;;;;;;10.03;7.70;;;12.40;99.90;;;;;;5069798;28;20988;-82
2022/04/26 06:47:16;;;;;;;9.55;7.07;;;12.60;99.90;;;;;;5057399;28;20386;-83
2022/04/26 06:49:41;;;;;;;10.47;6.97;;;12.90;99.90;;;;;;5050451;28;20455;-82
2022/04/26 06:52:07;;;;;;;94.63;15.23;;;13.30;99.90;;;;;;5050249;28;20391;-83
2022/04/26 06:54:32;;;;;;;49.80;39.07;;;13.40;99.90;;;;;;5050942;28;20371;-83
2022/04/26 06:56:58;;;;;;;8.57;6.30;;;13.20;99.90;;;;;;5057111;28;20551;-82
2022/04/26 06:59:23;;;;;;;9.77;7.60;;;13.30;99.90;;;;;;5070095;28;20389;-82
2022/04/26 07:01:52;;;;;;;14.68;11.75;;;13.20;99.90;;;;;;5052971;27;20923;-82
2022/04/26 07:04:19;;;;;;;20.40;15.07;;;13.30;99.90;;;;;;5050031;28;20384;-82
2022/04/26 07:06:45;;;;;;;18.00;12.95;;;13.40;99.90;;;;;;5050087;28;20404;-82
2022/04/26 07:09:11;;;;;;;8.57;5.97;;;13.60;99.90;;;;;;5048976;28;20388;-82
2022/04/26 07:11:36;;;;;;;59.40;43.80;;;13.80;99.90;;;;;;5071287;28;20411;-83
2022/04/26 07:14:02;;;;;;;9.88;6.93;;;13.90;99.90;;;;;;5068493;28;20451;-82
2022/04/26 07:16:28;;;;;;;14.90;11.07;;;13.90;99.90;;;;;;5070743;27;20382;-83
2022/04/26 07:18:53;;;;;;;403.60;335.80;;;14.10;99.90;;;;;;5069878;28;20954;-83
2022/04/26 07:21:19;;;;;;;44.08;26.33;;;14.30;99.90;;;;;;5071112;28;20376;-82
2022/04/26 07:23:45;;;;;;;18.67;14.40;;;14.30;99.90;;;;;;5070865;28;20468;-84
2022/04/26 07:26:11;;;;;;;17.85;12.75;;;14.30;99.90;;;;;;5060321;28;20408;-83
2022/04/26 07:28:36;;;;;;;8.07;6.38;;;14.30;99.90;;;;;;5050945;28;20384;-83
2022/04/26 07:31:02;;;;;;;50.37;25.70;;;14.50;99.50;;;;;;5049347;28;20494;-83
2022/04/26 07:36:11;;;;;;;9.20;6.78;;;14.60;99.90;;;;;;5051124;28;20441;-83
2022/04/26 07:38:37;;;;;;;7.87;5.60;;;14.70;99.30;;;;;;5051400;28;20780;-82
2022/04/26 07:41:03;;;;;;;67.78;38.63;;;14.90;97.10;;;;;;5059371;28;20379;-83
2022/04/26 07:43:29;;;;;;;10.30;7.07;;;15.10;96.20;;;;;;5069534;28;20384;-83
2022/04/26 07:45:54;;;;;;;20.17;6.20;;;15.00;96.80;;;;;;5070864;27;20464;-83
2022/04/26 07:48:22;;;;;;;8.88;5.82;;;14.90;95.60;;;;;;5065553;28;20382;-84
2022/04/26 07:50:48;;;;;;;6.73;5.37;;;15.00;96.70;;;;;;5062978;28;20867;-82
2022/04/26 07:53:14;;;;;;;7.85;6.18;;;15.20;97.30;;;;;;5071924;28;20408;-83
2022/04/26 07:55:40;;;;;;;6.80;5.23;;;15.30;96.00;;;;;;5070477;28;20424;-83
2022/04/26 07:58:06;;;;;;;7.53;5.50;;;15.40;95.10;;;;;;5070468;28;20458;-81
2022/04/26 08:00:31;;;;;;;12.05;7.55;;;15.50;93.90;;;;;;5069662;28;20761;-83
2022/04/26 08:02:57;;;;;;;6.67;5.10;;;15.60;97.90;;;;;;5070778;28;20413;-83
2022/04/26 08:05:23;;;;;;;8.27;6.13;;;15.70;94.50;;;;;;5070453;28;20423;-83
2022/04/26 08:07:49;;;;;;;10.23;6.83;;;15.80;94.40;;;;;;5070413;28;20417;-83
2022/04/26 08:10:16;;;;;;;14.40;10.18;;;;;;;;;;5070520;28;20374;-82
2022/04/26 08:12:42;;;;;;;11.77;7.60;;;;;;;;;;5061252;28;20387;-83
2022/04/26 08:15:12;;;;;;;9.00;7.05;;;16.40;92.00;;;;;;5066977;28;20380;-83
2022/04/26 08:17:37;;;;;;;8.47;5.53;;;16.60;95.80;;;;;;5070015;28;20871;-83
2022/04/26 08:20:06;;;;;;;9.15;5.97;;;16.40;95.40;;;;;;5058291;28;20436;-83
2022/04/26 08:22:31;;;;;;;7.40;6.38;;;16.50;94.80;;;;;;5070824;28;20378;-81
2022/04/26 08:27:41;;;;;;;19.90;16.92;;;16.20;95.30;;;;;;5070621;28;20386;-82
2022/04/26 08:30:07;;;;;;;9.27;6.83;;;16.20;92.60;;;;;;5070501;28;20374;-83
2022/04/26 08:32:42;;;;;;;10.53;7.00;;;16.30;93.60;;;;;;5068678;28;20398;-82
2022/04/26 08:35:11;;;;;;;107.03;80.53;;;16.30;93.90;;;;;;5068960;28;20461;-82
2022/04/26 08:37:37;;;;;;;25.42;18.25;;;16.40;93.20;;;;;;5070607;28;20457;-83
2022/04/26 08:40:06;;;;;;;29.52;19.92;;;16.70;94.70;;;;;;5070274;28;20461;-83
2022/04/26 08:42:37;;;;;;;9.80;7.93;;;16.60;94.10;;;;;;5069728;28;20381;-81
2022/04/26 08:45:11;;;;;;;11.32;8.52;;;16.70;93.40;;;;;;5068500;28;20430;-83
2022/04/26 08:53:08;;;;;;;18.58;9.23;;;16.50;93.60;;;;;;5070092;28;20913;-84
2022/04/26 08:55:50;;;;;;;8.27;7.30;;;16.80;94.60;;;;;;5065235;28;20392;-83
2022/04/26 08:58:18;;;;;;;10.18;7.32;;;17.00;93.10;;;;;;5069915;28;20444;-83
2022/04/26 09:01:06;;;;;;;9.70;7.30;;;16.90;92.00;;;;;;5069412;28;20454;-83
2022/04/26 09:03:33;;;;;;;18.98;11.30;;;17.10;91.10;;;;;;5068539;28;20390;-83
2022/04/26 09:06:07;;;;;;;8.50;6.45;;;17.00;93.50;;;;;;5072109;28;20451;-84
2022/04/26 09:08:34;;;;;;;8.55;6.38;;;16.90;92.00;;;;;;5064529;28;20885;-82
2022/04/26 09:11:00;;;;;;;7.33;6.13;;;16.90;90.60;;;;;;5068885;28;20742;-86
2022/04/26 09:13:26;;;;;;;7.97;6.90;;;16.80;90.00;;;;;;5073428;28;20402;-85
2022/04/26 09:15:55;;;;;;;8.80;7.10;;;16.90;91.00;;;;;;5073464;28;20373;-83
2022/04/26 09:18:30;;;;;;;6.10;5.28;;;16.40;88.90;;;;;;5069856;28;20405;-85
2022/04/26 09:21:08;;;;;;;6.20;4.95;;;16.10;89.80;;;;;;5066770;28;20872;-83
2022/04/26 09:23:34;;;;;;;6.03;4.55;;;15.80;90.00;;;;;;5062752;28;20385;-83
2022/04/26 09:26:09;;;;;;;6.28;5.20;;;15.90;89.40;;;;;;5070581;28;20406;-83
2022/04/26 09:28:39;;;;;;;7.53;4.93;;;15.90;91.10;;;;;;5094355;28;20758;-85
2022/04/26 09:31:31;;;;;;;19.08;5.72;;;16.20;90.80;;;;;;5067639;27;20378;-83
2022/04/26 09:34:11;;;;;;;7.03;4.10;;;16.50;87.70;;;;;;5084037;28;20430;-85
2022/04/26 09:36:48;;;;;;;5.35;4.20;;;16.40;89.70;;;;;;5049060;28;20387;-83
2022/04/26 09:39:21;;;;;;;5.68;4.38;;;16.30;88.40;;;;;;5047267;28;20399;-84
2022/04/26 09:41:52;;;;;;;8.47;4.63;;;16.50;90.10;;;;;;5045559;28;20417;-85
2022/04/26 09:44:29;;;;;;;6.93;4.68;;;16.70;89.70;;;;;;5048831;28;20371;-83
2022/04/26 09:47:10;;;;;;;6.45;4.25;;;16.70;86.30;;;;;;5123880;27;20423;-83
2022/04/26 09:49:37;;;;;;;5.72;4.50;;;16.50;88.60;;;;;;5108696;28;20384;-84
2022/04/26 09:52:03;;;;;;;8.15;4.38;;;16.40;87.60;;;;;;5107809;28;20407;-83
2022/04/26 09:54:29;;;;;;;4.95;4.05;;;16.30;85.90;;;;;;5107219;28;20459;-83
2022/04/26 09:56:55;;;;;;;4.47;4.07;;;16.40;85.20;;;;;;5106456;28;20466;-84
2022/04/26 09:59:29;;;;;;;5.80;3.80;;;16.30;87.60;;;;;;5105293;28;20379;-83
2022/04/26 10:01:59;;;;;;;6.80;3.67;;;16.40;89.10;;;;;;5103469;28;20421;-82
2022/04/26 10:04:27;;;;;;;7.15;3.58;;;16.60;90.20;;;;;;5107797;28;20372;-83
2022/04/26 10:06:59;;;;;;;4.97;3.40;;;17.10;90.10;;;;;;5100923;28;20438;-83
2022/04/26 10:09:25;;;;;;;5.85;4.03;;;17.50;87.80;;;;;;5104493;28;20737;-82
2022/04/26 10:11:57;;;;;;;5.07;3.30;;;17.80;85.40;;;;;;5105214;28;20384;-82
2022/04/26 10:14:24;;;;;;;4.28;3.15;;;18.00;85.20;;;;;;5104656;27;20433;-83
2022/04/26 10:16:50;;;;;;;4.22;3.22;;;18.30;84.70;;;;;;5103723;28;20473;-83
2022/04/26 10:19:16;;;;;;;4.77;3.23;;;18.50;80.80;;;;;;5103986;28;20384;-83
2022/04/26 10:21:46;;;;;;;5.00;3.38;;;18.50;84.30;;;;;;5104002;28;20383;-83
2022/04/26 10:24:23;;;;;;;6.80;3.35;;;18.50;81.20;;;;;;5098463;28;20447;-82
2022/04/26 10:26:50;;;;;;;5.23;3.90;;;18.40;79.10;;;;;;5119816;27;20408;-82
2022/04/26 10:29:22;;;;;;;3.72;3.42;;;18.00;77.80;;;;;;5105445;28;20375;-84
2022/04/26 10:31:58;;;;;;;4.72;3.40;;;17.60;81.50;;;;;;5103883;28;20376;-83
2022/04/26 10:34:27;;;;;;;4.63;3.65;;;17.40;81.80;;;;;;5102395;28;20402;-85
2022/04/26 10:37:01;;;;;;;5.43;3.53;;;17.40;81.90;;;;;;5106168;28;20391;-83
2022/04/26 10:39:49;;;;;;;5.75;3.42;;;17.40;79.50;;;;;;5095760;28;20384;-86
2022/04/26 10:42:15;;;;;;;4.80;3.83;;;17.10;82.40;;;;;;5103052;28;20428;-82
2022/04/26 10:44:48;;;;;;;4.03;3.00;;;17.10;78.40;;;;;;5107272;28;20826;-85
2022/04/26 10:47:20;;;;;;;4.47;2.97;;;17.10;79.70;;;;;;5101784;28;20410;-85
2022/04/26 10:49:49;;;;;;;5.57;3.30;;;17.10;78.20;;;;;;5104735;28;20861;-83
2022/04/26 10:52:18;;;;;;;3.75;3.13;;;17.10;78.30;;;;;;5105570;28;20376;-83
2022/04/26 10:54:46;;;;;;;3.75;3.28;;;17.10;79.20;;;;;;5104769;28;20508;-83
2022/04/26 10:57:16;;;;;;;4.97;3.30;;;17.00;78.80;;;;;;5097196;28;20771;-84
2022/04/26 10:59:47;;;;;;;4.05;3.15;;;16.80;78.50;;;;;;5092345;28;20417;-83
2022/04/26 11:02:15;;;;;;;3.78;3.13;;;16.90;79.90;;;;;;5087851;28;20372;-83
2022/04/26 11:04:41;;;;;;;3.38;2.70;;;17.10;78.60;;;;;;5090301;28;20377;-83
2022/04/26 11:07:10;;;;;;;3.22;2.53;;;17.10;75.80;;;;;;5091475;28;21289;-84
2022/04/26 11:09:36;;;;;;;4.30;3.05;;;17.40;78.70;;;;;;5091991;28;20376;-84
2022/04/26 11:12:02;;;;;;;4.30;3.40;;;17.30;77.80;;;;;;5090613;28;20888;-84
2022/04/26 11:14:28;;;;;;;2.97;2.60;;;17.50;77.30;;;;;;5090435;28;20403;-85
2022/04/26 11:16:59;;;;;;;3.40;2.85;;;17.70;76.70;;;;;;5090429;28;20874;-85
2022/04/26 11:19:30;;;;;;;4.80;3.10;;;17.80;75.40;;;;;;5089565;28;20389;-85
2022/04/26 11:21:56;;;;;;;4.80;3.28;;;17.90;77.80;;;;;;5090123;28;20386;-85
2022/04/26 11:29:53;;;;;;;4.93;2.95;;;17.90;75.60;;;;;;5088970;28;20414;-83
2022/04/26 11:32:38;;;;;;;4.30;2.60;;;17.90;77.30;;;;;;5089121;28;20384;-83
2022/04/26 11:35:04;;;;;;;39.22;6.20;;;18.20;77.10;;;;;;5089923;28;20390;-84
2022/04/26 11:37:30;;;;;;;4.00;2.60;;;18.40;73.30;;;;;;5088936;28;20406;-86
2022/04/26 11:39:56;;;;;;;2.97;2.60;;;18.10;70.00;;;;;;5091322;28;20387;-85
2022/04/26 11:42:22;;;;;;;11.30;3.00;;;17.80;70.60;;;;;;5089608;28;20381;-84
2022/04/26 11:45:05;;;;;;;4.50;2.17;;;17.30;70.30;;;;;;5090671;28;20360;-85
2022/04/26 11:47:41;;;;;;;3.83;2.58;;;17.20;71.90;;;;;;5086739;28;20388;-85
2022/04/26 11:50:15;;;;;;;3.83;2.60;;;17.00;71.40;;;;;;5089344;28;20375;-86
2022/04/26 11:52:43;;;;;;;2.80;2.45;;;16.70;70.90;;;;;;5090690;28;20433;-85
2022/04/26 11:55:19;;;;;;;2.65;2.45;;;16.50;71.70;;;;;;5090564;28;20429;-84
2022/04/26 11:57:50;;;;;;;4.03;2.92;;;16.40;73.60;;;;;;5089214;28;20380;-86
2022/04/26 12:00:18;;;;;;;3.20;2.75;;;16.30;74.20;;;;;;5087258;28;20434;-84
2022/04/26 12:02:47;;;;;;;4.55;3.05;;;16.40;73.10;;;;;;5089306;28;20369;-86
2022/04/26 12:05:14;;;;;;;3.80;2.60;;;16.60;72.90;;;;;;5105256;28;20977;-84
2022/04/26 12:07:40;;;;;;;3.23;2.40;;;16.60;73.20;;;;;;5091516;28;20377;-82
2022/04/26 12:10:24;;;;;;;2.90;2.60;;;16.60;73.80;;;;;;5088618;28;20466;-83
2022/04/26 12:12:58;;;;;;;2.85;2.42;;;16.80;72.20;;;;;;5089355;28;20889;-83
2022/04/26 12:15:29;;;;;;;2.75;2.47;;;16.80;71.80;;;;;;5092604;28;20411;-85
2022/04/26 12:18:05;;;;;;;2.72;2.50;;;16.90;72.80;;;;;;5086672;28;20458;-85
2022/04/26 12:20:32;;;;;;;3.08;2.60;;;17.10;71.70;;;;;;5089916;28;20434;-83
2022/04/26 12:22:57;;;;;;;27.08;4.93;;;17.20;72.40;;;;;;5091613;28;20471;-83
2022/04/26 12:25:23;;;;;;;12.47;3.37;;;17.40;72.70;;;;;;5091552;28;20480;-84
2022/04/26 12:28:07;;;;;;;33.13;4.78;;;17.60;73.10;;;;;;5089255;28;20379;-86
2022/04/26 12:30:37;;;;;;;3.38;2.40;;;17.70;73.40;;;;;;5088369;28;20428;-83
2022/04/26 12:33:04;;;;;;;2.90;2.70;;;17.80;72.00;;;;;;5091982;28;20381;-84
2022/04/26 12:35:29;;;;;;;3.20;2.42;;;17.80;70.00;;;;;;5091495;28;20455;-84
2022/04/26 12:38:09;;;;;;;4.35;2.70;;;17.80;69.30;;;;;;5093283;28;20399;-82
2022/04/26 12:40:36;;;;;;;3.75;2.60;;;17.80;68.10;;;;;;5089688;28;20376;-84
2022/04/26 12:43:28;;;;;;;9.88;3.17;;;17.70;70.40;;;;;;5091961;28;20372;-82
2022/04/26 12:45:58;;;;;;;4.35;2.47;;;17.70;72.30;;;;;;5087945;28;20423;-83
2022/04/26 12:51:27;;;;;;;5.83;2.47;;;18.10;69.90;;;;;;5088763;28;20376;-86
2022/04/26 12:54:05;;;;;;;4.63;2.30;;;18.30;70.90;;;;;;5088408;28;20396;-84
2022/04/26 12:56:31;;;;;;;2.35;2.10;;;18.50;68.10;;;;;;5093269;28;20842;-83
2022/04/26 12:58:56;;;;;;;5.60;2.10;;;18.60;69.20;;;;;;5092360;28;20373;-84
2022/04/26 13:01:22;;;;;;;6.43;2.60;;;18.60;70.40;;;;;;5092973;28;20383;-83
2022/04/26 13:03:48;;;;;;;3.55;2.03;;;18.70;69.20;;;;;;5092963;28;20380;-85
2022/04/26 13:06:19;;;;;;;5.23;2.13;;;18.60;70.40;;;;;;5091863;28;20498;-83
2022/04/26 13:08:48;;;;;;;3.97;2.10;;;18.50;69.60;;;;;;5088672;28;20973;-84
2022/04/26 13:11:17;;;;;;;3.25;2.08;;;18.40;69.40;;;;;;5088021;28;20385;-83
2022/04/26 13:13:46;;;;;;;2.25;2.05;;;18.10;69.60;;;;;;5089974;28;20381;-85
2022/04/26 13:16:11;;;;;;;2.43;2.20;;;17.90;69.00;;;;;;5088247;28;20393;-85
2022/04/26 13:18:38;;;;;;;3.83;2.40;;;17.70;68.60;;;;;;5091062;28;20463;-83
2022/04/26 13:21:05;;;;;;;3.55;2.10;;;17.40;69.00;;;;;;5091393;28;20388;-83
2022/04/26 13:23:34;;;;;;;1.98;1.75;;;17.40;70.60;;;;;;5091659;28;20402;-83
2022/04/26 13:26:00;;;;;;;3.22;2.17;;;17.60;72.80;;;;;;5091211;28;20428;-85
2022/04/26 13:28:26;;;;;;;18.25;3.90;;;17.80;71.60;;;;;;5089621;28;20389;-85
2022/04/26 13:30:52;;;;;;;2.70;2.20;;;18.00;70.50;;;;;;5089702;28;20728;-84
2022/04/26 13:33:18;;;;;;;3.33;2.47;;;17.90;67.10;;;;;;5088978;28;20434;-83
2022/04/26 13:35:44;;;;;;;2.72;2.05;;;17.80;71.10;;;;;;5086217;28;20407;-83
2022/04/26 13:38:12;;;;;;;3.40;2.80;;;17.80;69.50;;;;;;5086192;28;20380;-84
2022/04/26 13:40:39;;;;;;;3.30;2.63;;;18.00;68.10;;;;;;5087009;28;20373;-84
2022/04/26 13:43:07;;;;;;;4.57;3.00;;;17.90;70.20;;;;;;5087220;28;20395;-85
2022/04/26 13:45:33;;;;;;;3.92;2.20;;;18.10;73.40;;;;;;5084872;28;20393;-85
2022/04/26 13:48:01;;;;;;;3.20;2.28;;;18.40;71.80;;;;;;5086429;28;20384;-85
2022/04/26 13:50:29;;;;;;;4.45;2.50;;;18.80;68.90;;;;;;5101184;28;20457;-85
2022/04/26 13:52:55;;;;;;;2.83;2.27;;;;;;;;;;5085375;28;20434;-85
2022/04/26 13:55:21;;;;;;;16.10;3.40;;;18.90;66.10;;;;;;5088602;28;20505;-84
2022/04/26 13:57:47;;;;;;;4.25;2.30;;;18.60;67.30;;;;;;5089991;28;20471;-84
2022/04/26 14:00:15;;;;;;;3.30;2.45;;;18.40;66.40;;;;;;5089841;28;20387;-84
2022/04/26 14:02:44;;;;;;;3.70;2.20;;;18.00;67.50;;;;;;5092620;28;20380;-86
2022/04/26 14:05:10;;;;;;;3.58;2.65;;;17.90;67.30;;;;;;5091215;28;20480;-83
2022/04/26 14:07:36;;;;;;;4.20;2.17;;;17.80;67.70;;;;;;5090960;28;20384;-85
2022/04/26 14:10:03;;;;;;;3.00;2.40;;;17.80;68.60;;;;;;5087643;28;20365;-84
2022/04/26 14:12:29;;;;;;;3.20;2.33;;;17.80;69.30;;;;;;5088564;28;20380;-85
2022/04/26 14:23:07;;;;;;;3.50;2.20;;;18.10;69.20;;;;;;5090317;28;20518;-83
2022/04/26 14:25:32;;;;;;;3.90;2.60;;;18.10;69.80;;;;;;5089969;28;20452;-86
2022/04/26 14:27:58;;;;;;;4.00;2.60;;;18.30;67.30;;;;;;5090433;28;20383;-83
2022/04/26 14:30:24;;;;;;;5.37;2.40;;;18.30;67.40;;;;;;5090003;28;20383;-82
2022/04/26 14:32:49;;;;;;;5.68;2.58;;;18.30;67.90;;;;;;5089690;28;20442;-83
2022/04/26 14:35:15;;;;;;;3.27;2.27;;;18.60;67.80;;;;;;5090990;28;20395;-83
2022/04/26 14:37:41;;;;;;;9.25;3.05;;;18.70;67.80;;;;;;5093375;28;20373;-81
2022/04/26 14:40:09;;;;;;;3.05;2.47;;;18.90;65.90;;;;;;5091430;28;20380;-82
2022/04/26 14:42:35;;;;;;;2.78;2.40;;;18.80;66.40;;;;;;5091871;28;20391;-83
2022/04/26 14:45:01;;;;;;;2.92;2.22;;;18.60;66.80;;;;;;5092151;28;20372;-83
2022/04/26 14:47:27;;;;;;;4.00;2.40;;;18.50;67.00;;;;;;5091780;28;20438;-82
2022/04/26 14:49:54;;;;;;;5.05;2.53;;;18.10;66.90;;;;;;5090065;28;20396;-84
2022/04/26 14:52:21;;;;;;;3.97;2.45;;;18.10;67.10;;;;;;5088369;28;20376;-85
2022/04/26 14:54:48;;;;;;;3.75;2.25;;;18.10;66.70;;;;;;5090436;28;20950;-83
2022/04/26 14:57:17;;;;;;;2.42;2.22;;;18.00;67.50;;;;;;5090278;28;20381;-84
2022/04/26 14:59:48;;;;;;;3.90;2.30;;;18.00;67.50;;;;;;5091154;28;20408;-82
2022/04/26 15:02:18;;;;;;;3.85;2.35;;;18.20;66.90;;;;;;5092226;28;20433;-83
2022/04/26 15:04:46;;;;;;;2.78;1.92;;;18.20;67.00;;;;;;5091645;28;20411;-83
2022/04/26 15:07:12;;;;;;;9.30;2.70;;;18.30;66.90;;;;;;5092695;28;20399;-86
2022/04/26 15:09:44;;;;;;;4.38;2.25;;;18.30;66.40;;;;;;5090777;28;20438;-85
2022/04/26 15:17:50;;;;;;;11.63;3.03;;;18.30;65.50;;;;;;5093811;28;20407;-85
2022/04/26 15:20:18;;;;;;;2.97;2.10;;;18.30;66.50;;;;;;5091704;28;20406;-85
2022/04/26 15:22:45;;;;;;;2.97;2.47;;;18.40;66.40;;;;;;5091022;28;20874;-87
2022/04/26 15:25:10;;;;;;;4.65;2.25;;;18.60;66.50;;;;;;5092893;28;20373;-83
2022/04/26 15:27:40;;;;;;;3.75;2.00;;;18.30;64.50;;;;;;5090539;28;20395;-85
2022/04/26 15:30:11;;;;;;;3.67;2.03;;;18.20;67.00;;;;;;5093093;28;20483;-85
2022/04/26 15:32:38;;;;;;;6.32;2.30;;;18.30;67.10;;;;;;5089831;28;20790;-85
2022/04/26 15:35:04;;;;;;;2.53;2.13;;;18.60;67.70;;;;;;5090232;28;20411;-85
2022/04/26 15:37:30;;;;;;;3.33;2.30;;;18.70;65.50;;;;;;5093349;28;20410;-83
2022/04/26 15:39:56;;;;;;;3.60;1.80;;;18.80;66.10;;;;;;5093346;28;20365;-85
2022/04/26 15:42:22;;;;;;;12.45;3.17;;;19.00;65.30;;;;;;5090975;28;20427;-85
2022/04/26 15:44:48;;;;;;;2.92;2.03;;;19.10;65.70;;;;;;5092042;28;20388;-86
2022/04/26 15:47:14;;;;;;;3.00;2.10;;;19.20;68.60;;;;;;5091432;28;20461;-84
2022/04/26 15:49:41;;;;;;;3.78;1.88;;;19.30;67.30;;;;;;5094188;28;20392;-84
2022/04/26 15:52:07;;;;;;;2.77;2.30;;;19.20;67.30;;;;;;5091562;28;20389;-87
2022/04/26 15:54:35;;;;;;;8.57;2.70;;;18.90;67.60;;;;;;5092471;28;20368;-84
2022/04/26 15:57:02;;;;;;;3.70;2.80;;;18.60;68.70;;;;;;5091317;28;20375;-84
2022/04/26 15:59:28;;;;;;;6.10;2.60;;;17.90;70.20;;;;;;5090254;28;20392;-86
2022/04/26 16:01:57;;;;;;;2.83;2.13;;;17.80;70.80;;;;;;5091563;28;20385;-83
2022/04/26 16:04:22;;;;;;;2.63;2.30;;;17.70;71.10;;;;;;5091409;28;20385;-85
2022/04/26 16:06:48;;;;;;;2.60;2.15;;;17.70;70.90;;;;;;5093536;28;20411;-86
2022/04/26 16:20:31;;;;;;;5.38;2.33;;;17.60;71.70;;;;;;5091439;28;20749;-83
2022/04/26 16:23:07;;;;;;;3.50;2.63;;;17.40;74.80;;;;;;5091466;28;20435;-82
2022/04/26 16:25:33;;;;;;;3.03;2.40;;;;;;;;;;5091835;28;20535;-83
2022/04/26 16:28:04;;;;;;;3.10;2.42;;;;;;;;;;5104342;28;21265;-84
2022/04/26 16:30:31;;;;;;;3.42;2.55;;;;;;;;;;5092316;28;20365;-82
2022/04/26 16:32:58;;;;;;;4.60;2.65;;;;;;;;;;5092210;28;20460;-83
2022/04/26 16:35:25;;;;;;;3.95;2.50;;;;;;;;;;5092008;28;20368;-84
2022/04/26 16:37:57;;;;;;;3.63;2.40;;;;;;;;;;5090071;28;20397;-84
2022/04/26 16:40:23;;;;;;;3.92;2.55;;;;;;;;;;5087969;28;20381;-83
2022/04/26 16:42:50;;;;;;;2.67;2.43;;;;;;;;;;5090983;28;20517;-83
2022/04/26 16:45:16;;;;;;;3.92;2.53;;;;;;;;;;5105374;28;20389;-85
2022/04/26 16:47:42;;;;;;;3.97;2.57;;;;;;;;;;5092055;28;20400;-83
2022/04/26 16:50:08;;;;;;;30.45;24.23;;;;;;;;;;5093024;28;20464;-84
2022/04/26 16:52:37;;;;;;;11.37;8.53;;;;;;;;;;5093755;28;20439;-84
2022/04/26 16:55:04;;;;;;;10.35;7.68;;;;;;;;;;5093593;28;20380;-84
2022/04/26 16:57:31;;;;;;;8.32;5.90;;;;;;;;;;5094186;28;20440;-84
2022/04/26 16:59:57;;;;;;;5.07;2.83;;;15.60;82.80;;;;;;5092311;28;20372;-83
2022/04/26 17:02:24;;;;;;;5.65;2.90;;;15.50;83.30;;;;;;5093432;28;20468;-84
2022/04/26 17:04:50;;;;;;;8.55;5.70;;;15.40;83.70;;;;;;5093079;28;20407;-83
2022/04/26 17:07:15;;;;;;;6.60;2.87;;;15.40;83.60;;;;;;5090714;28;20440;-82
2022/04/26 17:09:41;;;;;;;3.50;2.88;;;15.30;84.40;;;;;;5092475;28;20433;-86
2022/04/26 17:12:07;;;;;;;4.90;2.60;;;15.40;83.90;;;;;;5092033;28;20388;-83
2022/04/26 17:14:35;;;;;;;5.15;2.72;;;15.30;84.00;;;;;;5097499;28;20755;-84
2022/04/26 17:17:02;;;;;;;3.88;2.80;;;15.10;84.10;;;;;;5092361;28;20372;-83